Time;durP1;ratioP1;P1;durP2;ratioP2;P2;SDS_P1;SDS_P2;PMS_P1;PMS_P2;Temp;Humidity;BMP_temperature;BMP_pressure;BME280_temperature;BME280_humidity;BME280_pressure;Samples;Min_cycle;Max_cycle;Signal;HPM_P1;HPM_P2
2023/07/10 00:01:06;;;;;;;1.30;1.20;;;24.80;51.10;;;;;;5014375;28;20034;-75
2023/07/10 00:03:32;;;;;;;1.42;1.33;;;24.70;51.10;;;;;;5016005;28;20078;-75
2023/07/10 00:05:59;;;;;;;1.20;1.10;;;24.80;51.10;;;;;;5015451;28;20460;-75
2023/07/10 00:08:26;;;;;;;1.98;1.00;;;24.80;51.20;;;;;;5015572;28;20029;-75
2023/07/10 00:10:52;;;;;;;1.30;1.20;;;24.80;51.20;;;;;;5015592;28;20065;-74
2023/07/10 00:13:21;;;;;;;2.95;1.45;;;24.80;51.20;;;;;;5015572;28;20022;-75
2023/07/10 00:15:52;;;;;;;1.23;1.13;;;24.80;51.20;;;;;;5014519;28;20022;-74
2023/07/10 00:18:20;;;;;;;3.58;1.23;;;24.80;51.30;;;;;;5015352;28;20050;-74
2023/07/10 00:20:46;;;;;;;1.02;1.02;;;24.80;51.30;;;;;;5015203;28;20030;-74
2023/07/10 00:23:13;;;;;;;1.42;1.33;;;24.80;51.30;;;;;;5015573;28;20357;-74
2023/07/10 00:25:39;;;;;;;1.20;1.10;;;24.80;51.30;;;;;;5015033;28;20072;-74
2023/07/10 00:28:19;;;;;;;1.02;1.00;;;24.70;51.30;;;;;;5014243;28;20026;-74
2023/07/10 00:30:47;;;;;;;1.42;1.05;;;24.70;51.40;;;;;;5015584;28;20034;-74
2023/07/10 00:33:14;;;;;;;1.20;1.10;;;24.70;51.40;;;;;;5013879;28;20061;-74
2023/07/10 00:35:40;;;;;;;1.60;1.25;;;24.80;51.50;;;;;;5015092;28;20025;-74
2023/07/10 00:38:25;;;;;;;0.95;0.95;;;24.70;51.50;;;;;;5015538;28;20377;-73
2023/07/10 00:40:51;;;;;;;1.05;1.05;;;24.70;51.70;;;;;;5014896;28;20041;-74
2023/07/10 00:43:30;;;;;;;1.90;1.38;;;24.70;52.30;;;;;;5014348;28;20030;-74
2023/07/10 00:46:03;;;;;;;1.52;1.40;;;24.70;51.80;;;;;;5014737;28;20053;-74
2023/07/10 00:48:44;;;;;;;1.15;1.08;;;24.60;51.80;;;;;;5014889;28;20022;-74
2023/07/10 00:51:19;;;;;;;1.30;1.20;;;24.60;51.90;;;;;;5014886;28;20084;-74
2023/07/10 00:53:47;;;;;;;1.52;1.42;;;24.50;52.00;;;;;;5014943;28;20018;-74
2023/07/10 00:56:17;;;;;;;1.40;1.30;;;24.50;52.10;;;;;;5013156;28;20117;-74
2023/07/10 00:58:45;;;;;;;1.42;1.13;;;24.40;52.10;;;;;;5014931;28;20029;-74
2023/07/10 01:01:14;;;;;;;1.73;1.60;;;24.40;52.20;;;;;;5013991;28;20408;-74
2023/07/10 01:03:42;;;;;;;2.13;1.30;;;24.40;52.30;;;;;;5014693;28;20119;-74
2023/07/10 01:06:29;;;;;;;1.27;1.17;;;24.40;52.30;;;;;;5014309;28;20476;-74
2023/07/10 01:09:01;;;;;;;1.60;1.50;;;24.40;52.50;;;;;;5014980;28;20041;-74
2023/07/10 01:11:27;;;;;;;1.52;1.38;;;24.40;52.40;;;;;;5014442;28;20033;-74
2023/07/10 01:13:56;;;;;;;1.30;1.20;;;24.30;52.40;;;;;;5014963;28;20411;-74
2023/07/10 01:16:23;;;;;;;1.90;1.25;;;24.30;52.40;;;;;;5014207;28;20450;-74
2023/07/10 01:18:49;;;;;;;1.50;1.40;;;24.30;52.50;;;;;;5014116;28;20026;-75
2023/07/10 01:21:32;;;;;;;1.35;1.25;;;24.30;52.60;;;;;;5014051;28;20033;-74
2023/07/10 01:24:00;;;;;;;1.60;1.50;;;24.30;52.70;;;;;;5014726;28;20030;-74
2023/07/10 01:26:27;;;;;;;1.95;1.35;;;24.30;52.60;;;;;;5014235;28;20033;-74
2023/07/10 01:28:54;;;;;;;1.42;1.30;;;24.30;52.70;;;;;;5014102;28;20055;-74
2023/07/10 01:31:21;;;;;;;1.63;1.50;;;24.20;52.70;;;;;;5012968;28;20108;-74
2023/07/10 01:33:51;;;;;;;1.58;1.48;;;24.20;52.80;;;;;;5013948;28;20032;-74
2023/07/10 01:36:21;;;;;;;1.25;1.17;;;24.20;52.80;;;;;;5014357;28;20474;-74
2023/07/10 01:39:35;;;;;;;2.00;1.50;;;24.20;52.90;;;;;;5013891;28;20030;-74
2023/07/10 01:42:00;;;;;;;1.33;1.20;;;24.20;53.40;;;;;;5014006;28;20034;-74
2023/07/10 01:44:29;;;;;;;1.63;1.20;;;24.20;52.90;;;;;;5014336;28;20113;-74
2023/07/10 01:46:56;;;;;;;1.63;1.52;;;24.20;52.90;;;;;;5013905;28;20053;-74
2023/07/10 01:49:29;;;;;;;1.52;1.42;;;24.20;53.00;;;;;;5014316;28;20040;-74
2023/07/10 01:51:57;;;;;;;2.05;1.45;;;24.30;53.10;;;;;;5012942;28;20022;-74
2023/07/10 01:54:23;;;;;;;1.92;1.55;;;24.20;53.10;;;;;;5016777;28;20034;-74
2023/07/10 01:56:49;;;;;;;1.42;1.33;;;24.20;53.20;;;;;;5018226;28;20053;-73
2023/07/10 01:59:15;;;;;;;1.55;1.45;;;24.20;53.30;;;;;;5017731;28;20388;-73
2023/07/10 02:01:40;;;;;;;1.60;1.50;;;24.20;53.30;;;;;;5017884;28;20030;-73
2023/07/10 02:04:06;;;;;;;1.70;1.60;;;24.20;53.40;;;;;;5017802;28;20539;-73
2023/07/10 02:06:35;;;;;;;1.40;1.30;;;24.20;53.40;;;;;;5017711;28;20038;-74
2023/07/10 02:09:02;;;;;;;1.70;1.58;;;24.20;53.40;;;;;;5017770;28;20038;-74
2023/07/10 02:11:27;;;;;;;1.60;1.50;;;24.20;53.40;;;;;;5016529;28;20065;-74
2023/07/10 02:13:53;;;;;;;1.83;1.70;;;24.20;53.40;;;;;;5017662;28;20119;-74
2023/07/10 02:16:19;;;;;;;1.48;1.38;;;24.20;53.40;;;;;;5017975;28;20429;-74
2023/07/10 02:18:44;;;;;;;1.98;1.40;;;24.20;53.50;;;;;;5017724;28;20061;-74
2023/07/10 02:21:10;;;;;;;1.45;1.35;;;24.20;53.50;;;;;;5017662;28;20022;-74
2023/07/10 02:23:38;;;;;;;1.40;1.30;;;24.20;53.50;;;;;;5017300;28;20345;-74
2023/07/10 02:26:04;;;;;;;1.75;1.60;;;24.20;53.60;;;;;;5017743;28;20034;-74
2023/07/10 02:28:30;;;;;;;1.70;1.60;;;24.20;53.60;;;;;;5017498;28;20029;-74
2023/07/10 02:30:56;;;;;;;1.52;1.42;;;24.20;53.60;;;;;;5017461;28;20038;-74
2023/07/10 02:33:22;;;;;;;1.50;1.40;;;24.20;53.70;;;;;;5017421;28;20376;-74
2023/07/10 02:35:48;;;;;;;1.60;1.50;;;24.20;53.70;;;;;;5017235;28;20022;-74
2023/07/10 02:38:14;;;;;;;1.75;1.60;;;24.20;53.70;;;;;;5016946;28;20412;-74
2023/07/10 02:40:43;;;;;;;1.95;1.80;;;24.20;53.70;;;;;;5017464;28;20469;-74
2023/07/10 02:43:09;;;;;;;2.00;1.80;;;24.20;53.80;;;;;;5017355;28;20022;-74
2023/07/10 02:45:35;;;;;;;1.80;1.52;;;24.20;53.80;;;;;;5016907;28;20037;-74
2023/07/10 02:48:01;;;;;;;3.25;1.80;;;24.20;53.80;;;;;;5016964;28;20033;-74
2023/07/10 02:50:27;;;;;;;1.73;1.55;;;24.20;53.90;;;;;;5017071;28;20427;-75
2023/07/10 02:52:52;;;;;;;1.70;1.60;;;24.20;53.90;;;;;;5016963;28;20021;-74
2023/07/10 02:55:18;;;;;;;2.70;1.75;;;24.20;53.90;;;;;;5017031;28;20132;-75
2023/07/10 02:57:44;;;;;;;3.72;1.60;;;24.20;53.90;;;;;;5017020;28;20404;-74
2023/07/10 03:00:10;;;;;;;2.47;1.60;;;24.20;53.80;;;;;;5015572;28;20108;-75
2023/07/10 03:02:36;;;;;;;1.90;1.80;;;24.20;53.80;;;;;;5016897;28;20105;-74
2023/07/10 03:05:02;;;;;;;1.75;1.60;;;24.20;53.90;;;;;;5015870;28;20113;-74
2023/07/10 03:07:27;;;;;;;2.05;1.90;;;24.30;53.90;;;;;;5016726;28;20029;-74
2023/07/10 03:09:53;;;;;;;2.10;1.80;;;24.20;53.90;;;;;;5016800;28;20157;-74
2023/07/10 03:12:21;;;;;;;2.30;1.77;;;24.30;54.00;;;;;;5016466;28;20439;-74
2023/07/10 03:14:50;;;;;;;1.83;1.70;;;24.30;53.90;;;;;;5016532;28;20022;-74
2023/07/10 03:17:16;;;;;;;1.92;1.80;;;24.30;54.00;;;;;;5016338;28;20030;-74
2023/07/10 03:19:42;;;;;;;1.77;1.67;;;24.20;53.90;;;;;;5016440;28;20416;-74
2023/07/10 03:22:08;;;;;;;2.20;2.00;;;24.20;54.00;;;;;;5016548;28;20053;-74
2023/07/10 03:24:33;;;;;;;2.78;1.60;;;24.20;54.00;;;;;;5016638;28;20030;-74
2023/07/10 03:26:59;;;;;;;3.58;1.90;;;24.30;54.10;;;;;;5016732;28;20034;-74
2023/07/10 03:29:25;;;;;;;1.63;1.48;;;24.30;54.10;;;;;;5015452;28;20029;-74
2023/07/10 03:31:50;;;;;;;2.00;1.90;;;24.40;54.10;;;;;;5015211;28;20026;-74
2023/07/10 03:34:16;;;;;;;2.03;1.83;;;24.30;54.10;;;;;;5016058;28;20033;-75
2023/07/10 03:36:42;;;;;;;2.13;1.80;;;24.40;54.10;;;;;;5016516;28;20034;-74
2023/07/10 03:39:08;;;;;;;2.03;1.80;;;24.40;54.10;;;;;;5016700;28;20026;-74
2023/07/10 03:41:35;;;;;;;2.00;1.80;;;24.40;54.10;;;;;;5016362;28;20464;-74
2023/07/10 03:44:00;;;;;;;1.98;1.70;;;24.40;54.00;;;;;;5016049;28;20025;-74
2023/07/10 03:46:26;;;;;;;2.00;1.80;;;24.40;54.00;;;;;;5016055;28;20046;-74
2023/07/10 03:48:52;;;;;;;2.65;1.70;;;24.50;54.00;;;;;;5015850;28;20041;-74
2023/07/10 03:51:18;;;;;;;3.70;1.83;;;24.50;54.00;;;;;;5015932;28;20061;-74
2023/07/10 03:53:45;;;;;;;1.90;1.73;;;24.50;54.00;;;;;;5016005;28;20037;-74
2023/07/10 03:56:11;;;;;;;2.25;1.50;;;24.50;53.90;;;;;;5015711;28;20070;-74
2023/07/10 03:58:40;;;;;;;2.22;1.70;;;24.60;53.90;;;;;;5015584;28;20034;-74
2023/07/10 04:01:06;;;;;;;1.80;1.70;;;24.60;54.00;;;;;;5014489;28;20025;-75
2023/07/10 04:03:34;;;;;;;1.75;1.65;;;24.60;53.90;;;;;;5014358;28;20030;-74
2023/07/10 04:06:00;;;;;;;2.20;2.00;;;24.60;53.90;;;;;;5015657;28;20032;-74
2023/07/10 04:08:35;;;;;;;1.83;1.70;;;24.60;53.90;;;;;;5015517;28;20100;-74
2023/07/10 04:11:06;;;;;;;2.17;1.90;;;24.60;53.90;;;;;;5015436;28;20026;-74
2023/07/10 04:13:33;;;;;;;2.55;2.10;;;24.60;54.00;;;;;;5015629;28;20018;-75
2023/07/10 04:16:01;;;;;;;2.30;2.10;;;24.60;53.90;;;;;;5015310;28;20025;-75
2023/07/10 04:18:35;;;;;;;1.75;1.65;;;24.60;54.00;;;;;;5015506;28;20038;-75
2023/07/10 04:21:02;;;;;;;;;;;24.60;54.00;;;;;;5016336;28;20350;-75
2023/07/10 04:23:28;;;;;;;2.10;1.90;;;24.60;54.40;;;;;;5015378;28;20048;-74
2023/07/10 04:25:54;;;;;;;2.33;1.98;;;24.70;54.00;;;;;;5013829;28;20117;-75
2023/07/10 04:28:20;;;;;;;2.30;1.83;;;24.70;53.90;;;;;;5014983;28;20034;-74
2023/07/10 04:30:47;;;;;;;2.05;1.92;;;24.70;53.90;;;;;;5015101;28;20044;-75
2023/07/10 04:33:14;;;;;;;2.85;2.10;;;24.70;53.90;;;;;;5015114;28;20472;-75
2023/07/10 04:35:41;;;;;;;2.42;2.20;;;24.70;53.90;;;;;;5014783;28;20032;-74
2023/07/10 04:38:07;;;;;;;3.85;2.00;;;24.70;53.90;;;;;;5015091;28;20036;-74
2023/07/10 04:40:33;;;;;;;2.58;2.20;;;24.70;53.90;;;;;;5014823;28;20022;-75
2023/07/10 04:43:00;;;;;;;2.03;1.92;;;24.70;53.90;;;;;;5014995;28;20029;-74
2023/07/10 04:45:25;;;;;;;2.75;2.03;;;24.70;53.90;;;;;;5014661;28;20034;-74
2023/07/10 04:47:51;;;;;;;2.08;1.88;;;24.70;53.90;;;;;;5015018;28;20030;-75
2023/07/10 04:50:17;;;;;;;1.98;1.77;;;24.80;54.00;;;;;;5015085;28;20040;-74
2023/07/10 04:52:43;;;;;;;2.40;2.00;;;24.80;53.90;;;;;;5014791;28;20049;-75
2023/07/10 04:55:08;;;;;;;2.15;1.63;;;24.80;53.90;;;;;;5014754;28;20026;-75
2023/07/10 04:57:34;;;;;;;2.63;1.88;;;24.80;53.90;;;;;;5014351;28;20053;-75
2023/07/10 05:00:00;;;;;;;2.22;2.00;;;24.80;53.90;;;;;;5014145;28;20053;-74
2023/07/10 05:02:25;;;;;;;2.00;1.80;;;24.80;53.90;;;;;;5013656;28;20042;-75
2023/07/10 05:04:51;;;;;;;2.13;1.92;;;24.80;53.90;;;;;;5014261;28;20036;-75
2023/07/10 05:07:16;;;;;;;2.30;2.10;;;24.80;53.90;;;;;;5014590;28;20026;-76
2023/07/10 05:09:42;;;;;;;1.92;1.60;;;24.80;53.90;;;;;;5014347;28;20037;-73
2023/07/10 05:12:08;;;;;;;2.28;2.03;;;24.80;53.90;;;;;;5014086;28;20384;-73
2023/07/10 05:14:33;;;;;;;1.88;1.77;;;24.90;54.00;;;;;;5014133;28;20026;-74
2023/07/10 05:16:59;;;;;;;3.25;2.00;;;24.90;54.00;;;;;;5014888;28;20029;-74
2023/07/10 05:19:25;;;;;;;2.33;2.13;;;24.80;53.90;;;;;;5014377;28;20038;-74
2023/07/10 05:21:51;;;;;;;2.53;2.10;;;24.90;54.00;;;;;;5014288;28;20445;-75
2023/07/10 05:24:16;;;;;;;2.20;2.00;;;24.90;54.00;;;;;;5013035;28;20021;-75
2023/07/10 05:26:42;;;;;;;2.25;2.05;;;24.90;53.90;;;;;;5014344;28;20072;-74
2023/07/10 05:29:08;;;;;;;2.70;1.90;;;24.90;53.90;;;;;;5013789;28;20034;-76
2023/07/10 05:31:34;;;;;;;2.20;2.00;;;25.00;54.00;;;;;;5014360;28;20030;-74
2023/07/10 05:34:00;;;;;;;3.05;2.03;;;25.00;54.00;;;;;;5013004;28;20096;-74
2023/07/10 05:36:25;;;;;;;2.33;2.10;;;25.00;53.90;;;;;;5014618;28;20460;-75
2023/07/10 05:38:52;;;;;;;2.30;2.05;;;25.00;54.00;;;;;;5014061;28;20407;-75
2023/07/10 05:41:19;;;;;;;2.30;2.10;;;25.00;53.90;;;;;;5013840;28;20030;-73
2023/07/10 05:43:45;;;;;;;2.10;1.90;;;25.00;54.00;;;;;;5014235;28;20030;-74
2023/07/10 05:46:11;;;;;;;2.00;1.80;;;25.00;54.00;;;;;;5013784;28;20073;-74
2023/07/10 05:48:37;;;;;;;1.80;1.70;;;25.00;54.00;;;;;;5014115;28;20033;-75
2023/07/10 05:51:03;;;;;;;2.08;1.88;;;25.00;54.00;;;;;;5012878;28;20025;-75
2023/07/10 05:53:30;;;;;;;3.67;2.00;;;25.00;54.00;;;;;;5012641;28;20073;-74
2023/07/10 05:55:57;;;;;;;2.00;1.90;;;25.10;54.00;;;;;;5013867;28;20026;-75
2023/07/10 05:58:28;;;;;;;2.10;1.90;;;25.00;54.00;;;;;;5014058;28;20018;-75
2023/07/10 06:00:57;;;;;;;2.10;1.90;;;25.10;54.00;;;;;;5014016;28;20544;-74
2023/07/10 06:03:24;;;;;;;1.90;1.80;;;25.10;53.90;;;;;;5013518;28;20030;-74
2023/07/10 06:05:59;;;;;;;1.88;1.77;;;25.10;53.90;;;;;;5012615;28;20121;-74
2023/07/10 06:08:26;;;;;;;2.67;2.15;;;25.10;53.80;;;;;;5013748;28;20022;-75
2023/07/10 06:10:52;;;;;;;1.88;1.77;;;25.10;53.80;;;;;;5013273;28;20018;-75
2023/07/10 06:13:18;;;;;;;2.03;1.80;;;25.10;53.80;;;;;;5013728;28;20062;-75
2023/07/10 06:15:47;;;;;;;1.98;1.77;;;25.10;53.70;;;;;;5013396;28;20045;-75
2023/07/10 06:18:17;;;;;;;3.83;1.80;;;25.10;53.60;;;;;;5013581;28;20080;-74
2023/07/10 06:20:48;;;;;;;1.70;1.60;;;25.20;53.60;;;;;;5012205;28;20056;-74
2023/07/10 06:23:14;;;;;;;2.50;2.00;;;25.20;53.50;;;;;;5013345;28;20056;-74
2023/07/10 06:25:46;;;;;;;2.38;2.17;;;25.20;53.50;;;;;;5013611;28;20022;-75
2023/07/10 06:28:12;;;;;;;1.70;1.60;;;25.20;53.50;;;;;;5013539;28;20373;-75
2023/07/10 06:30:43;;;;;;;1.65;1.55;;;25.20;53.30;;;;;;5013558;28;20026;-74
2023/07/10 06:33:08;;;;;;;2.05;1.90;;;25.20;53.10;;;;;;5013429;28;20054;-75
2023/07/10 06:35:34;;;;;;;1.60;1.50;;;25.20;53.10;;;;;;5013299;28;20065;-74
2023/07/10 06:38:00;;;;;;;1.58;1.48;;;25.20;52.90;;;;;;5013703;28;20033;-73
2023/07/10 06:40:26;;;;;;;1.70;1.60;;;25.20;52.80;;;;;;5014200;28;20026;-74
2023/07/10 06:42:51;;;;;;;1.80;1.70;;;25.30;52.70;;;;;;5017317;28;20026;-73
2023/07/10 06:45:17;;;;;;;1.52;1.42;;;25.30;52.70;;;;;;5015848;28;20415;-74
2023/07/10 06:47:45;;;;;;;1.63;1.48;;;25.30;52.60;;;;;;5016974;28;20077;-73
2023/07/10 06:50:14;;;;;;;1.95;1.80;;;25.30;52.50;;;;;;5015430;28;20049;-74
2023/07/10 06:52:42;;;;;;;1.73;1.63;;;25.30;52.40;;;;;;5016775;28;20104;-74
2023/07/10 06:55:12;;;;;;;1.98;1.85;;;25.30;52.30;;;;;;5015528;28;20029;-74
2023/07/10 06:57:38;;;;;;;1.70;1.60;;;25.30;52.30;;;;;;5015569;28;20036;-74
2023/07/10 07:00:09;;;;;;;2.05;1.90;;;25.40;52.30;;;;;;5016671;28;20112;-74
2023/07/10 07:02:35;;;;;;;1.60;1.50;;;25.40;52.30;;;;;;5016585;28;20463;-75
2023/07/10 07:05:03;;;;;;;2.63;1.52;;;25.40;52.10;;;;;;5016567;28;20057;-75
2023/07/10 07:07:28;;;;;;;2.05;1.85;;;25.40;52.10;;;;;;5016805;28;20072;-75
2023/07/10 07:09:54;;;;;;;1.50;1.40;;;25.40;52.00;;;;;;5017054;28;20045;-74
2023/07/10 07:12:20;;;;;;;1.85;1.75;;;25.40;52.00;;;;;;5016656;28;20029;-75
2023/07/10 07:14:45;;;;;;;2.50;1.50;;;25.40;51.90;;;;;;5016832;28;20037;-75
2023/07/10 07:17:12;;;;;;;1.60;1.50;;;25.40;51.80;;;;;;5016276;28;20088;-75
2023/07/10 07:19:37;;;;;;;1.60;1.50;;;25.50;51.80;;;;;;5016330;28;20125;-75
2023/07/10 07:22:03;;;;;;;1.70;1.60;;;25.50;51.80;;;;;;5016308;28;20068;-75
2023/07/10 07:24:29;;;;;;;1.77;1.55;;;25.50;51.80;;;;;;5016353;28;20465;-74
2023/07/10 07:26:55;;;;;;;2.15;1.73;;;25.50;51.70;;;;;;5016134;28;20508;-74
2023/07/10 07:29:21;;;;;;;2.28;1.40;;;25.50;51.70;;;;;;5016259;28;20407;-74
2023/07/10 07:31:46;;;;;;;1.60;1.50;;;25.50;51.50;;;;;;5016189;28;20453;-73
2023/07/10 07:34:13;;;;;;;1.95;1.40;;;25.50;51.40;;;;;;5016152;28;20151;-75
2023/07/10 07:36:38;;;;;;;1.70;1.60;;;25.50;51.40;;;;;;5016474;28;20033;-73
2023/07/10 07:39:05;;;;;;;1.60;1.50;;;25.50;51.30;;;;;;5015727;28;20038;-74
2023/07/10 07:41:32;;;;;;;1.50;1.40;;;25.60;51.40;;;;;;5014686;28;20172;-73
2023/07/10 07:43:58;;;;;;;1.60;1.50;;;25.60;51.40;;;;;;5015833;28;20447;-74
2023/07/10 07:46:24;;;;;;;2.00;1.88;;;25.60;51.40;;;;;;5015613;28;20054;-74
2023/07/10 07:48:50;;;;;;;1.98;1.80;;;25.60;51.30;;;;;;5015717;28;20030;-75
2023/07/10 07:51:16;;;;;;;1.80;1.70;;;25.60;51.20;;;;;;5015515;28;20457;-74
2023/07/10 07:53:42;;;;;;;1.90;1.80;;;25.70;51.20;;;;;;5015812;28;20025;-74
2023/07/10 07:56:08;;;;;;;2.75;1.60;;;25.70;51.20;;;;;;5015308;28;20062;-75
2023/07/10 07:58:33;;;;;;;2.15;1.70;;;25.70;51.20;;;;;;5015088;28;20056;-75
2023/07/10 08:01:02;;;;;;;1.73;1.60;;;25.70;51.20;;;;;;5015207;28;20480;-75
2023/07/10 08:03:28;;;;;;;1.45;1.35;;;25.70;51.20;;;;;;5014301;28;20113;-75
2023/07/10 08:05:54;;;;;;;1.85;1.48;;;25.70;51.10;;;;;;5015843;28;20032;-75
2023/07/10 08:08:21;;;;;;;1.60;1.50;;;25.80;51.10;;;;;;5015393;28;20431;-74
2023/07/10 08:10:48;;;;;;;1.40;1.30;;;25.70;51.00;;;;;;5015055;28;20053;-75
2023/07/10 08:13:16;;;;;;;3.15;1.90;;;25.80;51.00;;;;;;5015399;28;20065;-75
2023/07/10 08:15:42;;;;;;;1.58;1.48;;;25.80;50.90;;;;;;5015081;28;20053;-75
2023/07/10 08:18:08;;;;;;;2.67;1.52;;;25.80;50.80;;;;;;5015199;28;20085;-75
2023/07/10 08:20:34;;;;;;;1.88;1.67;;;25.80;50.80;;;;;;5015143;28;20065;-75
2023/07/10 08:23:02;;;;;;;1.83;1.73;;;25.80;50.70;;;;;;5015105;28;20101;-75
2023/07/10 08:25:28;;;;;;;1.98;1.88;;;25.80;50.60;;;;;;5015051;28;20033;-75
2023/07/10 08:27:53;;;;;;;1.55;1.40;;;25.80;50.60;;;;;;5015434;28;20025;-75
2023/07/10 08:30:19;;;;;;;1.70;1.60;;;25.90;50.60;;;;;;5014967;28;20113;-75
2023/07/10 08:32:44;;;;;;;1.65;1.55;;;25.90;50.60;;;;;;5014998;28;20500;-75
2023/07/10 08:35:10;;;;;;;1.70;1.60;;;25.90;50.40;;;;;;5014996;28;20033;-75
2023/07/10 08:37:37;;;;;;;1.90;1.70;;;25.90;50.40;;;;;;5014877;28;20342;-75
2023/07/10 08:40:12;;;;;;;2.60;1.50;;;25.90;50.30;;;;;;5013603;28;20033;-75
2023/07/10 08:42:39;;;;;;;1.30;1.20;;;25.90;50.20;;;;;;5014853;28;20038;-74
2023/07/10 08:45:11;;;;;;;1.50;1.40;;;25.90;50.10;;;;;;5013576;28;20053;-74
2023/07/10 08:47:43;;;;;;;1.60;1.50;;;25.90;50.00;;;;;;5015293;28;20053;-74
2023/07/10 08:50:30;;;;;;;2.78;1.80;;;26.00;49.90;;;;;;5014588;28;20037;-74
2023/07/10 08:53:16;;;;;;;1.48;1.38;;;25.90;49.80;;;;;;5014721;28;20022;-74
2023/07/10 08:56:04;;;;;;;1.70;1.60;;;25.90;49.40;;;;;;5015354;28;20053;-75
2023/07/10 08:58:34;;;;;;;1.58;1.48;;;26.00;49.40;;;;;;5014682;28;20032;-74
2023/07/10 09:01:02;;;;;;;1.73;1.63;;;26.00;49.60;;;;;;5014488;28;20065;-74
2023/07/10 09:03:43;;;;;;;1.80;1.70;;;26.00;49.60;;;;;;5012317;28;20114;-73
2023/07/10 09:06:25;;;;;;;3.45;1.70;;;26.00;49.20;;;;;;5013253;28;20496;-75
2023/07/10 09:08:54;;;;;;;1.70;1.60;;;26.10;49.40;;;;;;5013494;28;20137;-75
2023/07/10 09:11:21;;;;;;;1.55;1.45;;;26.00;49.40;;;;;;5014123;28;20448;-75
2023/07/10 09:13:58;;;;;;;1.55;1.45;;;26.10;49.30;;;;;;5014458;28;20034;-75
2023/07/10 09:16:26;;;;;;;3.33;1.50;;;26.10;49.20;;;;;;5014404;28;20032;-75
2023/07/10 09:19:16;;;;;;;1.60;1.50;;;26.10;49.10;;;;;;5014507;28;20456;-75
2023/07/10 09:21:42;;;;;;;1.55;1.45;;;26.10;48.70;;;;;;5011529;28;20089;-75
2023/07/10 09:24:19;;;;;;;1.60;1.50;;;26.10;49.10;;;;;;5014130;28;20053;-75
2023/07/10 09:26:45;;;;;;;1.50;1.40;;;26.20;48.80;;;;;;5013691;28;20029;-75
2023/07/10 09:29:10;;;;;;;1.40;1.30;;;26.20;48.90;;;;;;5014172;28;20026;-75
2023/07/10 09:31:57;;;;;;;1.65;1.55;;;26.20;48.80;;;;;;5013778;28;20052;-75
2023/07/10 09:34:28;;;;;;;1.90;1.60;;;26.30;48.60;;;;;;5013839;28;20026;-75
2023/07/10 09:36:56;;;;;;;1.80;1.70;;;26.30;48.80;;;;;;5013871;28;20587;-75
2023/07/10 09:39:30;;;;;;;2.00;1.80;;;26.30;48.80;;;;;;5012856;28;20054;-74
2023/07/10 09:42:00;;;;;;;;;;;26.40;48.70;;;;;;5012533;28;20038;-74
2023/07/10 09:44:39;;;;;;;1.90;1.50;;;26.30;48.10;;;;;;5014096;28;19921;-74
2023/07/10 09:47:10;;;;;;;1.63;1.52;;;26.40;48.60;;;;;;5012384;28;20140;-74
2023/07/10 09:49:41;;;;;;;1.52;1.40;;;26.40;48.70;;;;;;5013502;28;20461;-74
2023/07/10 09:52:18;;;;;;;1.65;1.55;;;26.40;48.60;;;;;;5013736;28;20034;-75
2023/07/10 09:54:44;;;;;;;2.53;1.70;;;26.40;48.50;;;;;;5014316;28;20029;-74
2023/07/10 09:57:12;;;;;;;1.75;1.52;;;26.50;48.70;;;;;;5013618;28;20419;-75
2023/07/10 09:59:38;;;;;;;1.73;1.63;;;26.50;48.60;;;;;;5013436;28;20369;-75
2023/07/10 10:02:32;;;;;;;1.77;1.67;;;26.60;48.60;;;;;;5013765;28;20053;-75
2023/07/10 10:05:12;;;;;;;2.93;2.17;;;26.60;48.30;;;;;;5013737;28;20026;-75
2023/07/10 10:07:42;;;;;;;1.90;1.80;;;26.60;48.50;;;;;;5013565;28;20046;-75
2023/07/10 10:10:29;;;;;;;1.70;1.60;;;26.70;48.60;;;;;;5012116;28;20041;-74
2023/07/10 10:12:55;;;;;;;1.80;1.70;;;26.80;48.30;;;;;;5013909;28;20026;-74
2023/07/10 10:15:51;;;;;;;2.97;1.70;;;26.80;48.40;;;;;;5016187;28;20097;-75
2023/07/10 10:18:47;;;;;;;1.65;1.55;;;26.80;47.90;;;;;;5017110;28;20129;-75
2023/07/10 10:21:16;;;;;;;1.77;1.65;;;26.90;48.10;;;;;;5014507;28;20053;-75
2023/07/10 10:23:45;;;;;;;1.70;1.60;;;27.00;48.20;;;;;;5017562;28;20026;-74
2023/07/10 10:26:34;;;;;;;1.73;1.63;;;27.10;48.10;;;;;;5017494;28;20072;-75
2023/07/10 10:29:22;;;;;;;1.67;1.52;;;27.10;47.50;;;;;;5017342;28;20025;-76
2023/07/10 10:32:15;;;;;;;2.97;1.73;;;27.20;47.60;;;;;;5016297;28;20065;-74
2023/07/10 10:34:49;;;;;;;1.80;1.70;;;27.10;47.70;;;;;;5017411;28;20022;-75
2023/07/10 10:37:26;;;;;;;2.08;1.90;;;27.00;47.90;;;;;;5017111;28;20030;-75
2023/07/10 10:40:09;;;;;;;1.83;1.73;;;27.00;47.90;;;;;;5016925;28;20037;-75
2023/07/10 10:42:59;;;;;;;2.22;1.80;;;27.00;48.00;;;;;;5017345;28;20042;-75
2023/07/10 10:45:27;;;;;;;1.92;1.70;;;27.00;48.00;;;;;;5017044;28;20443;-75
2023/07/10 10:48:22;;;;;;;2.42;1.63;;;27.00;48.10;;;;;;5016961;28;20029;-75
2023/07/10 10:51:03;;;;;;;1.70;1.60;;;27.00;47.80;;;;;;5017274;28;20034;-75
2023/07/10 10:54:16;;;;;;;2.00;1.90;;;27.10;48.10;;;;;;5017310;28;20050;-75
2023/07/10 10:56:55;;;;;;;1.92;1.83;;;27.10;47.50;;;;;;5011439;28;20049;-75
2023/07/10 10:59:53;;;;;;;1.60;1.50;;;27.10;47.80;;;;;;5016730;28;20461;-75
2023/07/10 11:02:44;;;;;;;1.88;1.77;;;27.20;47.10;;;;;;5004727;28;20109;-74
2023/07/10 11:05:29;;;;;;;1.90;1.80;;;27.30;47.30;;;;;;5015494;28;20029;-75
2023/07/10 11:07:58;;;;;;;1.88;1.77;;;27.30;47.30;;;;;;5015370;28;20022;-75
2023/07/10 11:10:34;;;;;;;1.70;1.60;;;27.40;47.40;;;;;;5016480;28;20105;-75
2023/07/10 11:13:00;;;;;;;2.10;1.80;;;27.50;47.20;;;;;;5016948;28;20465;-75
2023/07/10 11:15:28;;;;;;;1.83;1.73;;;27.60;47.10;;;;;;5016758;28;20037;-74
2023/07/10 11:17:55;;;;;;;2.08;1.80;;;27.70;47.00;;;;;;5016593;28;20160;-74
2023/07/10 11:20:23;;;;;;;1.83;1.73;;;27.80;46.90;;;;;;5016691;28;20066;-74
2023/07/10 11:22:53;;;;;;;2.20;2.00;;;27.80;46.80;;;;;;5016315;28;20124;-76
2023/07/10 11:25:57;;;;;;;2.67;1.80;;;27.80;46.90;;;;;;5014830;28;20033;-75
2023/07/10 11:28:28;;;;;;;2.22;1.83;;;27.80;46.80;;;;;;5012848;28;20061;-75
2023/07/10 11:31:24;;;;;;;1.75;1.60;;;27.70;47.10;;;;;;5016132;28;20385;-72
2023/07/10 11:34:06;;;;;;;2.85;1.83;;;27.60;47.50;;;;;;5016011;28;20194;-73
2023/07/10 11:36:39;;;;;;;2.47;1.73;;;27.40;47.60;;;;;;5016069;28;20030;-72
2023/07/10 11:39:09;;;;;;;2.30;1.73;;;27.30;47.90;;;;;;5016086;28;20095;-72
2023/07/10 11:41:58;;;;;;;2.25;1.63;;;27.30;48.20;;;;;;5016150;28;20112;-72
2023/07/10 11:44:31;;;;;;;2.38;1.80;;;27.20;48.40;;;;;;5015930;28;20074;-72
2023/07/10 11:47:05;;;;;;;3.07;2.00;;;27.20;48.60;;;;;;5016360;28;20081;-72
2023/07/10 11:50:06;;;;;;;2.17;1.83;;;27.20;48.80;;;;;;5016126;28;20034;-72
2023/07/10 11:52:32;;;;;;;2.35;1.70;;;27.20;48.90;;;;;;5003584;28;20092;-73
2023/07/10 11:54:58;;;;;;;2.13;1.65;;;27.30;49.10;;;;;;5015923;28;20026;-72
2023/07/10 11:57:29;;;;;;;2.15;1.70;;;27.30;49.20;;;;;;5015894;28;20029;-72
2023/07/10 11:59:57;;;;;;;2.88;1.90;;;27.30;49.20;;;;;;5014397;28;20129;-72
2023/07/10 12:02:44;;;;;;;2.17;1.80;;;27.40;49.40;;;;;;5015884;28;20030;-72
2023/07/10 12:05:25;;;;;;;4.57;1.92;;;27.40;49.60;;;;;;5016071;28;20029;-72
2023/07/10 12:08:06;;;;;;;2.13;1.92;;;27.40;49.60;;;;;;5016043;28;20093;-73
2023/07/10 12:10:38;;;;;;;2.45;1.70;;;27.30;49.60;;;;;;5014442;28;20376;-73
2023/07/10 12:13:29;;;;;;;2.10;1.88;;;27.30;49.90;;;;;;5014170;28;20038;-73
2023/07/10 12:16:03;;;;;;;1.83;1.70;;;27.20;50.30;;;;;;5014457;28;20038;-73
2023/07/10 12:18:32;;;;;;;;;;;27.20;50.40;;;;;;5016013;28;20543;-72
2023/07/10 12:21:00;;;;;;;2.15;1.95;;;27.00;51.10;;;;;;5015033;28;20383;-73
2023/07/10 12:23:26;;;;;;;2.20;2.00;;;27.00;50.60;;;;;;5013712;28;20117;-71
2023/07/10 12:25:55;;;;;;;1.90;1.75;;;26.90;50.80;;;;;;5030346;28;20088;-72
2023/07/10 12:28:22;;;;;;;2.17;1.98;;;26.90;51.00;;;;;;5015184;28;20029;-72
2023/07/10 12:30:50;;;;;;;3.00;1.85;;;26.80;51.10;;;;;;5015121;28;20057;-72
2023/07/10 12:33:40;;;;;;;2.10;1.90;;;26.80;51.20;;;;;;5015048;28;20029;-72
2023/07/10 12:36:26;;;;;;;2.03;1.83;;;26.90;51.50;;;;;;5014769;28;20022;-73
2023/07/10 12:38:56;;;;;;;1.83;1.67;;;27.00;51.60;;;;;;5012829;28;20034;-73
2023/07/10 12:41:23;;;;;;;1.98;1.85;;;27.10;51.30;;;;;;5015258;28;20065;-73
2023/07/10 12:43:53;;;;;;;4.28;1.75;;;27.30;51.90;;;;;;5014916;28;20117;-73
2023/07/10 12:46:24;;;;;;;1.60;1.50;;;27.40;51.20;;;;;;5015008;28;20054;-73
2023/07/10 12:49:04;;;;;;;1.73;1.48;;;27.40;51.10;;;;;;5014842;28;20061;-73
2023/07/10 12:51:35;;;;;;;2.03;1.85;;;27.40;50.90;;;;;;5015009;28;20468;-73
2023/07/10 12:54:02;;;;;;;2.50;1.55;;;27.40;50.80;;;;;;5014808;28;20423;-73
2023/07/10 12:56:31;;;;;;;1.65;1.55;;;27.40;50.80;;;;;;5013359;28;20456;-73
2023/07/10 12:59:13;;;;;;;1.77;1.33;;;27.50;50.70;;;;;;5014247;28;20026;-73
2023/07/10 13:01:50;;;;;;;2.10;1.90;;;27.50;50.60;;;;;;5013482;28;20045;-73
2023/07/10 13:04:26;;;;;;;1.70;1.60;;;27.60;50.60;;;;;;5014903;28;20029;-73